Portada
METAR-TAF:

METAR-TAF

Aeroports :

Malé, Maldives

latitud: 04-12N, longitud: 073-32E, altitud: 2 m

Observació

L'informe es va fer fa 56 minuts, a les 09:00 UTC
Vent 11 kt del Est/Sud-Est
Temperatura 30°C
Humitat 70%
Pressió 1009 hPa
Visibilitat: 9000 m
Núvols disperses a una alçada de 1700 ft
Núvols disperses a una alçada de 1800 ft, Cumulonimbus.

METAR: VRMM 150900Z 12011KT 9000 SCT017 SCT018CB 30/24 Q1009 CB N,E,SE TEMPO 4000 SHRA

Hora: 14:56 (09:56 UTC)

Pronòstic

L'informe es va fer fa 4 hores i 56 minuts, a les 05:00 UTC
Pronòstic vàlid del 15 a les 06 UTC al 16 a les 12 UTC
Vent 10 kt del Est
Visibilitat 10 km o més
Escasses núvols a una alçada de 1700 ft, Cumulus congestus.
Temporalment
l' 15 a les 08 UTC al 15 a les 14 UTC
Visibilitat: 5000 m
Escasses núvols a una alçada de 1700 ft, Cumulonimbus.
tempesta, pluja

TAF: VRMM 150500Z 1506/1612 10010KT 9999 FEW017TCU TEMPO 1508/1514 5000 -TSRA FEW017CB

Observacions i pronòstics meteorològics de més de 4000 aeroports (METAR i TAF).

Les estacions disponibles són els punts grocs i vermells al mapa.

Posi el ratolí al punt desitjat per veure el nom de l'estació.

Feu clic per veure les observacions i els pronòstics meteorològics.

Per canviar el mapa: feu clic els botons verds amb una creu de color negre per apropar; al botó verd amb un guió per allunyar la imatge; o en les fletxes verdes per a mapes adjacents.


METAR-TAF: